createdAt,value
2023-02-26T00:02:03.237Z,5.60
2023-02-26T00:05:07.446Z,5.70
2023-02-26T00:08:12.238Z,5.70
2023-02-26T00:11:15.904Z,5.70
2023-02-26T00:14:19.805Z,5.70
2023-02-26T00:17:33.488Z,5.70
2023-02-26T00:20:38.518Z,5.70
2023-02-26T00:23:43.421Z,5.70
2023-02-26T00:26:46.631Z,5.70
2023-02-26T00:29:50.573Z,5.80
2023-02-26T00:32:54.499Z,5.60
2023-02-26T00:36:05.678Z,5.60
2023-02-26T00:39:22.504Z,5.50
2023-02-26T00:42:26.284Z,5.50
2023-02-26T00:45:30.118Z,5.40
2023-02-26T00:48:44.427Z,5.40
2023-02-26T00:51:52.124Z,5.40
2023-02-26T00:54:57.070Z,5.50
2023-02-26T00:58:00.288Z,5.40
2023-02-26T01:01:03.462Z,5.40
2023-02-26T01:04:07.577Z,5.50
2023-02-26T01:07:11.479Z,5.40
2023-02-26T01:10:16.841Z,5.30
2023-02-26T01:13:20.611Z,5.20
2023-02-26T01:16:28.736Z,5.20
2023-02-26T01:19:41.061Z,5.20
2023-02-26T01:22:47.522Z,5.20
2023-02-26T01:25:55.652Z,5.10
2023-02-26T01:28:59.269Z,5.20
2023-02-26T01:32:09.957Z,5.10
2023-02-26T01:35:24.901Z,5.00
2023-02-26T01:38:33.458Z,4.90
2023-02-26T01:41:42.806Z,4.90
2023-02-26T01:44:57.553Z,4.90
2023-02-26T01:48:06.431Z,4.90
2023-02-26T01:51:10.968Z,4.80
2023-02-26T01:54:14.849Z,4.80
2023-02-26T01:57:20.816Z,4.80
2023-02-26T02:00:24.158Z,4.70
2023-02-26T02:03:29.365Z,4.70
2023-02-26T02:06:32.698Z,4.70
2023-02-26T02:09:37.013Z,4.60
2023-02-26T02:12:50.586Z,4.60
2023-02-26T02:16:01.552Z,4.50
2023-02-26T02:19:19.828Z,4.50
2023-02-26T02:22:46.091Z,4.50
2023-02-26T02:26:28.994Z,4.50
2023-02-26T02:30:10.396Z,4.50
2023-02-26T02:33:20.007Z,4.50
2023-02-26T02:36:29.937Z,4.50
2023-02-26T02:39:38.616Z,4.50
2023-02-26T02:42:47.114Z,4.60
2023-02-26T02:45:54.223Z,4.60
2023-02-26T02:49:02.481Z,4.70
2023-02-26T02:52:11.763Z,4.60
2023-02-26T02:55:19.626Z,4.60
2023-02-26T02:58:27.003Z,4.60
2023-02-26T03:01:30.629Z,4.60
2023-02-26T03:04:35.879Z,4.60
2023-02-26T03:07:45.650Z,4.60
2023-02-26T03:10:49.148Z,4.60
2023-02-26T03:13:54.254Z,4.50
2023-02-26T03:17:07.571Z,4.40
2023-02-26T03:20:19.910Z,4.50
2023-02-26T03:23:28.592Z,4.40
2023-02-26T03:26:35.601Z,4.40
2023-02-26T03:29:45.283Z,4.40
2023-02-26T03:32:54.901Z,4.30
2023-02-26T03:36:05.803Z,4.10
2023-02-26T03:39:14.077Z,4.10
2023-02-26T03:42:23.806Z,4.10
2023-02-26T03:45:31.804Z,4.20
2023-02-26T03:48:37.813Z,4.20
2023-02-26T03:51:43.712Z,4.20
2023-02-26T03:54:53.575Z,4.20
2023-02-26T03:57:57.135Z,4.20
2023-02-26T04:01:05.105Z,4.30
2023-02-26T04:04:11.752Z,4.30
2023-02-26T04:07:18.396Z,4.30
2023-02-26T04:10:26.616Z,4.40
2023-02-26T04:13:29.857Z,4.50
2023-02-26T04:16:33.044Z,4.50
2023-02-26T04:19:36.350Z,4.40
2023-02-26T04:22:40.920Z,4.40
2023-02-26T04:25:44.118Z,4.40
2023-02-26T04:28:47.363Z,4.40
2023-02-26T04:31:51.192Z,4.40
2023-02-26T04:34:54.447Z,4.40
2023-02-26T04:37:59.025Z,4.40
2023-02-26T04:41:02.247Z,4.40
2023-02-26T04:44:05.829Z,4.30
2023-02-26T04:47:09.123Z,4.30
2023-02-26T04:50:13.122Z,4.40
2023-02-26T04:53:17.789Z,4.40
2023-02-26T04:56:21.004Z,4.40
2023-02-26T04:59:24.240Z,4.50
2023-02-26T05:02:27.642Z,4.50
2023-02-26T05:05:30.878Z,4.50
2023-02-26T05:08:35.468Z,4.50
2023-02-26T05:11:38.653Z,4.50
2023-02-26T05:14:41.834Z,4.50
2023-02-26T05:17:45.023Z,4.60
2023-02-26T05:20:52.856Z,4.60
2023-02-26T05:23:57.442Z,4.60
2023-02-26T05:27:00.655Z,4.60
2023-02-26T05:30:03.907Z,4.50
2023-02-26T05:33:07.150Z,4.50
2023-02-26T05:36:10.813Z,4.40
2023-02-26T05:39:15.414Z,4.40
2023-02-26T05:42:18.968Z,4.40
2023-02-26T05:45:22.136Z,4.50
2023-02-26T05:48:25.567Z,4.50
2023-02-26T05:51:29.361Z,4.50
2023-02-26T05:54:34.397Z,4.50
2023-02-26T05:57:37.628Z,4.60
2023-02-26T06:00:40.824Z,4.60
2023-02-26T06:03:44.876Z,4.60
2023-02-26T06:06:48.057Z,4.60
2023-02-26T06:09:52.671Z,4.70
2023-02-26T06:12:55.895Z,4.60
2023-02-26T06:15:59.223Z,4.70
2023-02-26T06:19:02.552Z,4.70
2023-02-26T06:22:05.771Z,4.80
2023-02-26T06:25:11.051Z,4.80
2023-02-26T06:28:14.260Z,4.80
2023-02-26T06:31:17.573Z,4.70
2023-02-26T06:34:22.233Z,4.80
2023-02-26T06:37:25.435Z,4.90
2023-02-26T06:40:30.675Z,4.90
2023-02-26T06:43:33.886Z,4.90
2023-02-26T06:46:37.118Z,5.00
2023-02-26T06:49:40.366Z,5.10
2023-02-26T06:52:43.536Z,5.20
2023-02-26T06:55:50.926Z,5.30
2023-02-26T06:58:54.290Z,5.50
2023-02-26T07:01:58.144Z,5.70
2023-02-26T07:05:01.390Z,5.80
2023-02-26T07:08:05.571Z,5.90
2023-02-26T07:11:10.278Z,6.10
2023-02-26T07:14:13.448Z,6.20
2023-02-26T07:17:20.540Z,6.30
2023-02-26T07:20:24.048Z,6.50
2023-02-26T07:23:27.212Z,6.60
2023-02-26T07:26:31.807Z,6.80
2023-02-26T07:29:34.958Z,6.90
2023-02-26T07:32:38.121Z,7.10
2023-02-26T07:35:41.646Z,7.30
2023-02-26T07:38:44.854Z,7.50
2023-02-26T07:41:49.409Z,7.70
2023-02-26T07:44:52.571Z,7.80
2023-02-26T07:47:55.817Z,7.90
2023-02-26T07:50:59.061Z,8.10
2023-02-26T07:54:02.737Z,8.10
2023-02-26T07:57:07.330Z,8.20
2023-02-26T08:00:11.968Z,8.20
2023-02-26T08:03:15.511Z,8.40
2023-02-26T08:06:18.675Z,8.20
2023-02-26T08:09:22.432Z,8.10
2023-02-26T08:12:26.977Z,7.90
2023-02-26T08:15:30.306Z,7.80
2023-02-26T08:18:33.578Z,7.90
2023-02-26T08:21:36.807Z,8.10
2023-02-26T08:24:39.995Z,8.30
2023-02-26T08:27:44.613Z,8.50
2023-02-26T08:30:47.900Z,8.50
2023-02-26T08:33:51.121Z,8.60
2023-02-26T08:36:54.308Z,8.80
2023-02-26T08:39:57.519Z,9.40
2023-02-26T08:43:04.045Z,9.80
2023-02-26T08:46:07.359Z,10.90
2023-02-26T08:49:10.689Z,11.90
2023-02-26T08:52:13.836Z,13.10
2023-02-26T08:55:17.086Z,13.90
2023-02-26T08:58:22.226Z,14.30
2023-02-26T09:01:25.664Z,14.70
2023-02-26T09:04:31.032Z,15.00
2023-02-26T09:07:34.508Z,15.00
2023-02-26T09:10:39.185Z,15.40
2023-02-26T09:13:44.758Z,16.20
2023-02-26T09:16:50.020Z,16.40
2023-02-26T09:19:54.318Z,16.20
2023-02-26T09:22:57.470Z,16.10
2023-02-26T09:26:00.734Z,15.70
2023-02-26T09:29:06.040Z,15.40
2023-02-26T09:32:09.598Z,15.10
2023-02-26T09:35:12.929Z,15.10
2023-02-26T09:38:16.464Z,15.00
2023-02-26T09:41:26.506Z,14.80
2023-02-26T09:44:33.918Z,14.40
2023-02-26T09:47:41.897Z,14.20
2023-02-26T09:50:48.141Z,14.10
2023-02-26T09:53:53.041Z,14.60
2023-02-26T09:57:00.687Z,15.10
2023-02-26T10:00:19.096Z,14.80
2023-02-26T10:03:29.391Z,14.80
2023-02-26T10:06:36.647Z,15.50
2023-02-26T10:09:52.305Z,16.20
2023-02-26T10:12:56.014Z,15.30
2023-02-26T10:16:12.722Z,14.60
2023-02-26T10:19:20.092Z,14.10
2023-02-26T10:22:29.751Z,13.60
2023-02-26T10:25:37.181Z,13.30
2023-02-26T10:28:56.913Z,13.70
2023-02-26T10:32:13.606Z,14.40
2023-02-26T10:35:20.015Z,14.70
2023-02-26T10:38:26.624Z,14.60
2023-02-26T10:41:32.799Z,13.90
2023-02-26T10:44:40.945Z,13.60
2023-02-26T10:47:52.950Z,13.50
2023-02-26T10:50:58.916Z,13.60
2023-02-26T10:54:12.816Z,13.80
2023-02-26T10:57:22.333Z,14.00
2023-02-26T11:00:26.386Z,13.80
2023-02-26T11:03:35.603Z,13.60
2023-02-26T11:06:43.195Z,13.30
2023-02-26T11:09:48.087Z,13.20
2023-02-26T11:12:51.707Z,13.20
2023-02-26T11:15:57.194Z,13.10
2023-02-26T11:19:03.273Z,12.60
2023-02-26T11:22:10.096Z,12.30
2023-02-26T11:25:16.118Z,11.80
2023-02-26T11:28:26.493Z,11.40
2023-02-26T11:31:31.774Z,11.20
2023-02-26T11:34:38.600Z,11.00
2023-02-26T11:37:47.208Z,10.90
2023-02-26T11:40:56.081Z,10.70
2023-02-26T11:44:03.997Z,10.60
2023-02-26T12:35:47.010Z,8.50
2023-02-26T12:38:59.773Z,8.30
2023-02-26T12:42:15.724Z,8.10
2023-02-26T12:45:40.824Z,8.00
2023-02-26T12:49:19.881Z,7.90
2023-02-26T12:52:43.675Z,7.90
2023-02-26T12:56:02.490Z,7.90
2023-02-26T12:59:19.103Z,7.90
2023-02-26T13:02:50.727Z,8.00
2023-02-26T13:06:09.201Z,8.00
2023-02-26T13:09:26.334Z,8.10
2023-02-26T13:12:41.191Z,8.30
2023-02-26T13:16:03.680Z,8.40
2023-02-26T13:19:16.541Z,8.60
2023-02-26T13:22:25.260Z,8.80
2023-02-26T13:25:38.154Z,8.90
2023-02-26T13:28:47.140Z,8.90
2023-02-26T13:31:56.768Z,8.90
2023-02-26T13:35:05.368Z,8.80
2023-02-26T13:38:18.591Z,8.60
2023-02-26T13:41:29.741Z,8.50
2023-02-26T13:44:44.928Z,8.30
2023-02-26T13:48:07.891Z,8.20
2023-02-26T13:51:17.962Z,7.90
2023-02-26T13:54:45.300Z,7.80
2023-02-26T13:57:54.556Z,7.70
2023-02-26T14:01:06.636Z,7.60
2023-02-26T14:04:26.486Z,7.50
2023-02-26T14:07:53.897Z,7.30
2023-02-26T14:11:04.113Z,7.20
2023-02-26T14:14:15.698Z,7.20
2023-02-26T14:17:39.524Z,7.10
2023-02-26T14:20:44.597Z,7.00
2023-02-26T14:23:50.733Z,7.00
2023-02-26T14:27:25.751Z,6.90
2023-02-26T14:30:35.928Z,6.90
2023-02-26T14:33:43.871Z,6.80
2023-02-26T14:36:50.951Z,6.90
2023-02-26T14:39:59.783Z,6.80
2023-02-26T14:43:08.032Z,6.70
2023-02-26T14:46:14.414Z,6.70
2023-02-26T14:49:24.470Z,6.60
2023-02-26T14:52:48.086Z,6.70
2023-02-26T14:56:06.205Z,6.70
2023-02-26T14:59:33.945Z,6.70
2023-02-26T15:02:52.363Z,6.60
2023-02-26T15:06:09.973Z,6.60
2023-02-26T15:09:26.214Z,6.50
2023-02-26T15:12:46.558Z,6.60
2023-02-26T15:15:57.722Z,6.60
2023-02-26T15:19:18.130Z,6.60
2023-02-26T15:22:39.539Z,6.50
2023-02-26T15:25:47.478Z,6.50
2023-02-26T15:28:52.910Z,6.50
2023-02-26T15:32:04.758Z,6.50
2023-02-26T15:35:18.171Z,6.60
2023-02-26T15:38:24.674Z,6.60
2023-02-26T15:41:32.577Z,6.60
2023-02-26T15:44:40.488Z,6.60
2023-02-26T15:47:48.789Z,6.60
2023-02-26T15:50:59.269Z,6.50
2023-02-26T15:54:05.442Z,6.60
2023-02-26T15:57:10.245Z,6.60
2023-02-26T16:00:25.226Z,6.50
2023-02-26T16:03:31.468Z,6.50
2023-02-26T16:06:40.208Z,6.40
2023-02-26T16:09:49.461Z,6.40
2023-02-26T16:12:56.047Z,6.40
2023-02-26T16:16:08.938Z,6.40
2023-02-26T16:19:17.261Z,6.40
2023-02-26T16:22:27.975Z,6.40
2023-02-26T16:25:38.841Z,6.30
2023-02-26T16:28:46.742Z,6.20
2023-02-26T16:31:59.660Z,6.20
2023-02-26T16:35:13.899Z,6.20
2023-02-26T16:38:25.699Z,6.20
2023-02-26T16:41:33.714Z,6.20
2023-02-26T16:44:54.014Z,6.00
2023-02-26T16:48:00.537Z,5.90
2023-02-26T16:51:09.179Z,5.90
2023-02-26T16:54:22.780Z,5.90
2023-02-26T16:57:34.039Z,5.90
2023-02-26T17:00:40.348Z,5.80
2023-02-26T17:03:50.911Z,5.90
2023-02-26T17:06:59.565Z,5.80
2023-02-26T17:10:20.102Z,5.80
2023-02-26T17:13:32.951Z,5.80
2023-02-26T17:16:38.447Z,5.80
2023-02-26T17:19:43.725Z,5.80
2023-02-26T17:22:49.286Z,5.70
2023-02-26T17:25:57.106Z,5.70
2023-02-26T17:29:02.326Z,5.80
2023-02-26T17:32:08.173Z,5.70
2023-02-26T17:35:16.884Z,5.70
2023-02-26T17:38:21.843Z,5.70
2023-02-26T17:41:30.715Z,5.60
2023-02-26T17:44:36.300Z,5.50
2023-02-26T17:47:40.329Z,5.50
2023-02-26T17:50:49.254Z,5.50
2023-02-26T17:53:54.467Z,5.40
2023-02-26T17:57:01.477Z,5.50
2023-02-26T18:00:07.001Z,5.50
2023-02-26T18:03:12.822Z,5.50
2023-02-26T18:06:18.639Z,5.40
2023-02-26T18:09:23.245Z,5.50
2023-02-26T18:12:29.154Z,5.40
2023-02-26T18:15:35.038Z,5.50
2023-02-26T18:18:39.308Z,5.50
2023-02-26T18:21:44.541Z,5.40
2023-02-26T18:24:50.570Z,5.40
2023-02-26T18:28:02.517Z,5.50
2023-02-26T18:31:10.502Z,5.50
2023-02-26T18:34:14.839Z,5.40
2023-02-26T18:37:23.423Z,5.40
2023-02-26T18:40:29.430Z,5.40
2023-02-26T18:43:36.346Z,5.30
2023-02-26T18:46:41.877Z,5.30
2023-02-26T18:49:47.805Z,5.20
2023-02-26T18:52:52.600Z,5.20
2023-02-26T18:55:58.829Z,5.20
2023-02-26T18:59:05.614Z,5.30
2023-02-26T19:02:12.924Z,5.30
2023-02-26T19:05:23.688Z,5.30
2023-02-26T19:08:28.583Z,5.30
2023-02-26T19:11:33.457Z,5.30
2023-02-26T19:14:40.031Z,5.30
2023-02-26T19:17:45.513Z,5.30
2023-02-26T19:20:50.660Z,5.20
2023-02-26T19:23:55.695Z,5.30
2023-02-26T19:27:01.257Z,5.30
2023-02-26T19:30:09.671Z,5.30
2023-02-26T19:33:14.527Z,5.30
2023-02-26T19:36:22.077Z,5.30
2023-02-26T19:39:28.560Z,5.30
2023-02-26T19:42:33.093Z,5.20
2023-02-26T19:45:41.641Z,5.20
2023-02-26T19:48:45.707Z,5.20
2023-02-26T19:51:50.397Z,5.20
2023-02-26T19:54:56.261Z,5.20
2023-02-26T19:58:01.843Z,5.20
2023-02-26T20:01:10.640Z,5.20
2023-02-26T20:04:15.419Z,5.20
2023-02-26T20:07:24.271Z,5.20
2023-02-26T20:10:29.933Z,5.20
2023-02-26T20:13:36.156Z,5.20
2023-02-26T20:16:42.570Z,5.30
2023-02-26T20:19:48.064Z,5.30
2023-02-26T20:22:51.715Z,5.30
2023-02-26T20:25:58.274Z,5.30
2023-02-26T20:29:05.141Z,5.30
2023-02-26T20:32:11.170Z,5.30
2023-02-26T20:35:16.342Z,5.30
2023-02-26T20:38:22.267Z,5.30
2023-02-26T20:41:28.663Z,5.20
2023-02-26T20:44:34.227Z,5.20
2023-02-26T20:47:39.798Z,5.20
2023-02-26T20:50:47.059Z,5.20
2023-02-26T20:53:52.050Z,5.20
2023-02-26T20:56:57.123Z,5.10
2023-02-26T21:00:06.477Z,5.10
2023-02-26T21:03:12.892Z,5.10
2023-02-26T21:06:17.520Z,5.00
2023-02-26T21:09:21.459Z,5.00
2023-02-26T21:12:26.709Z,5.10
2023-02-26T21:15:31.226Z,5.10
2023-02-26T21:18:36.905Z,5.10
2023-02-26T21:21:42.305Z,5.10
2023-02-26T21:24:46.857Z,5.10
2023-02-26T21:27:52.352Z,5.00
2023-02-26T21:30:56.360Z,5.00
2023-02-26T21:34:17.245Z,4.90
2023-02-26T21:37:26.515Z,4.90
2023-02-26T21:40:31.826Z,4.80
2023-02-26T21:43:35.402Z,4.90
2023-02-26T21:46:38.907Z,4.90
2023-02-26T21:49:43.525Z,4.80
2023-02-26T21:52:46.816Z,4.80
2023-02-26T21:55:50.016Z,4.80
2023-02-26T21:58:53.322Z,4.70
2023-02-26T22:01:56.826Z,4.70
2023-02-26T22:05:01.481Z,4.70
2023-02-26T22:08:04.729Z,4.70
2023-02-26T22:11:07.917Z,4.60
2023-02-26T22:14:11.281Z,4.60
2023-02-26T22:17:14.483Z,4.60
2023-02-26T22:20:19.203Z,4.60
2023-02-26T22:23:22.470Z,4.60
2023-02-26T22:26:25.763Z,4.60
2023-02-26T22:29:29.008Z,4.50
2023-02-26T22:32:32.272Z,4.50
2023-02-26T22:35:36.861Z,4.50
2023-02-26T22:38:40.665Z,4.50
2023-02-26T22:41:45.340Z,4.50
2023-02-26T22:44:48.479Z,4.50
2023-02-26T22:47:51.694Z,4.50
2023-02-26T22:50:56.254Z,4.40
2023-02-26T22:53:59.884Z,4.30
2023-02-26T22:57:03.224Z,4.30
2023-02-26T23:00:11.453Z,4.20
2023-02-26T23:03:15.439Z,4.30
2023-02-26T23:06:19.998Z,4.30
2023-02-26T23:09:23.163Z,4.30
2023-02-26T23:12:26.321Z,4.20
2023-02-26T23:15:29.635Z,4.20
2023-02-26T23:18:34.219Z,4.20
2023-02-26T23:21:39.216Z,4.10
2023-02-26T23:24:42.665Z,4.10
2023-02-26T23:27:46.054Z,4.10
2023-02-26T23:30:49.349Z,4.00
2023-02-26T23:33:52.631Z,4.00
2023-02-26T23:36:57.280Z,4.10
2023-02-26T23:40:00.527Z,4.00
2023-02-26T23:43:03.716Z,4.00
2023-02-26T23:46:07.038Z,4.00
2023-02-26T23:49:10.360Z,4.00
2023-02-26T23:52:14.982Z,4.00
2023-02-26T23:55:19.201Z,4.10
2023-02-26T23:58:22.367Z,4.10
